createdAt,value
2023-03-06T00:00:25.362Z,95542.97
2023-03-06T00:02:58.700Z,95545.91
2023-03-06T00:05:27.534Z,95536.72
2023-03-06T00:07:55.898Z,95538.47
2023-03-06T00:10:27.034Z,95530.94
2023-03-06T00:13:08.447Z,95524.88
2023-03-06T00:15:36.930Z,95522.94
2023-03-06T00:18:06.125Z,95522.63
2023-03-06T00:20:35.530Z,95515.91
2023-03-06T00:23:04.027Z,95520.47
2023-03-06T00:25:32.573Z,95509.00
2023-03-06T00:28:00.862Z,95508.88
2023-03-06T00:30:30.598Z,95508.88
2023-03-06T00:32:58.927Z,95507.06
2023-03-06T00:35:27.234Z,95504.97
2023-03-06T00:37:55.601Z,95495.16
2023-03-06T00:40:24.023Z,95502.22
2023-03-06T00:42:52.340Z,95497.13
2023-03-06T00:45:20.873Z,95495.47
2023-03-06T00:47:50.543Z,95475.50
2023-03-06T00:50:18.950Z,95473.19
2023-03-06T00:52:47.368Z,95470.88
2023-03-06T00:55:15.769Z,95474.31
2023-03-06T00:57:44.107Z,95468.53
2023-03-06T01:00:14.255Z,95471.81
2023-03-06T01:02:42.873Z,95464.81
2023-03-06T01:05:14.812Z,95464.97
2023-03-06T01:07:43.223Z,95454.63
2023-03-06T01:10:13.126Z,95443.63
2023-03-06T01:12:51.398Z,95450.53
2023-03-06T01:15:19.867Z,95445.31
2023-03-06T01:17:57.002Z,95436.63
2023-03-06T01:20:26.766Z,95436.44
2023-03-06T01:22:56.628Z,95426.66
2023-03-06T01:25:25.862Z,95420.47
2023-03-06T01:27:58.700Z,95422.09
2023-03-06T01:30:27.051Z,95407.22
2023-03-06T01:32:55.404Z,95411.78
2023-03-06T01:35:23.998Z,95404.75
2023-03-06T01:37:54.406Z,95400.47
2023-03-06T01:40:22.928Z,95393.59
2023-03-06T01:42:51.911Z,95389.34
2023-03-06T01:45:57.398Z,95386.06
2023-03-06T01:48:26.369Z,95379.19
2023-03-06T01:50:55.414Z,95377.25
2023-03-06T01:53:26.407Z,95381.66
2023-03-06T01:55:55.182Z,95375.91
2023-03-06T01:58:23.806Z,95377.66
2023-03-06T02:00:52.182Z,95371.47
2023-03-06T02:03:24.651Z,95363.91
2023-03-06T02:05:53.033Z,95360.81
2023-03-06T02:08:24.274Z,95359.69
2023-03-06T02:11:03.336Z,95351.50
2023-03-06T02:13:32.139Z,95353.16
2023-03-06T02:16:00.516Z,95348.06
2023-03-06T02:18:29.655Z,95337.94
2023-03-06T02:21:00.171Z,95331.84
2023-03-06T02:23:34.594Z,95327.59
2023-03-06T02:26:05.785Z,95328.03
2023-03-06T02:28:34.259Z,95324.75
2023-03-06T02:31:02.764Z,95317.91
2023-03-06T02:33:31.276Z,95312.53
2023-03-06T02:36:02.369Z,95307.44
2023-03-06T02:38:35.635Z,95307.72
2023-03-06T02:41:08.179Z,95305.44
2023-03-06T02:43:40.750Z,95302.81
2023-03-06T02:46:09.280Z,95305.44
2023-03-06T02:48:37.626Z,95300.34
2023-03-06T02:51:06.165Z,95302.28
2023-03-06T02:53:34.598Z,95292.78
2023-03-06T02:56:03.236Z,95300.63
2023-03-06T02:58:32.915Z,95284.94
2023-03-06T03:01:01.269Z,95284.13
2023-03-06T03:03:29.726Z,95287.69
2023-03-06T03:05:58.057Z,95283.59
2023-03-06T03:08:26.424Z,95283.75
2023-03-06T03:10:56.246Z,95281.31
2023-03-06T03:13:24.785Z,95281.47
2023-03-06T03:16:01.903Z,95283.22
2023-03-06T03:18:30.648Z,95279.00
2023-03-06T03:20:59.179Z,95268.00
2023-03-06T03:23:28.270Z,95272.56
2023-03-06T03:25:56.622Z,95273.72
2023-03-06T03:28:24.942Z,95266.81
2023-03-06T03:30:55.166Z,95257.63
2023-03-06T03:33:24.812Z,95262.34
2023-03-06T03:35:58.057Z,95263.34
2023-03-06T03:38:26.556Z,95261.63
2023-03-06T03:40:54.854Z,95261.19
2023-03-06T03:43:23.647Z,95251.03
2023-03-06T03:45:53.789Z,95247.97
2023-03-06T03:48:22.446Z,95251.78
2023-03-06T03:50:52.101Z,95248.19
2023-03-06T03:53:20.391Z,95255.19
2023-03-06T03:55:49.794Z,95246.84
2023-03-06T03:58:18.124Z,95233.25
2023-03-06T04:00:47.188Z,95233.91
2023-03-06T04:03:15.501Z,95240.78
2023-03-06T04:05:43.874Z,95236.09
2023-03-06T04:08:13.578Z,95232.56
2023-03-06T04:10:41.890Z,95241.41
2023-03-06T04:13:10.329Z,95230.44
2023-03-06T04:15:38.609Z,95234.25
2023-03-06T04:18:07.013Z,95235.59
2023-03-06T04:20:35.274Z,95238.66
2023-03-06T04:23:03.551Z,95228.78
2023-03-06T04:25:33.273Z,95228.06
2023-03-06T04:28:01.627Z,95235.06
2023-03-06T04:30:29.888Z,95242.81
2023-03-06T04:32:58.517Z,95237.38
2023-03-06T04:35:27.325Z,95239.00
2023-03-06T04:37:55.761Z,95234.03
2023-03-06T04:40:28.626Z,95234.09
2023-03-06T04:43:00.042Z,95235.56
2023-03-06T04:45:29.891Z,95233.63
2023-03-06T04:47:58.325Z,95226.78
2023-03-06T04:50:28.342Z,95229.75
2023-03-06T04:52:56.706Z,95226.47
2023-03-06T04:55:25.060Z,95217.59
2023-03-06T04:57:53.439Z,95217.28
2023-03-06T05:00:29.415Z,95224.16
2023-03-06T05:03:07.680Z,95217.53
2023-03-06T05:05:36.180Z,95217.53
2023-03-06T05:08:04.797Z,95224.53
2023-03-06T05:10:33.151Z,95217.69
2023-03-06T05:13:01.508Z,95222.22
2023-03-06T05:15:31.320Z,95220.97
2023-03-06T05:18:01.669Z,95222.44
2023-03-06T05:20:30.056Z,95220.28
2023-03-06T05:22:58.861Z,95221.25
2023-03-06T05:25:27.231Z,95219.66
2023-03-06T05:27:59.144Z,95218.84
2023-03-06T05:30:27.474Z,95233.56
2023-03-06T05:32:57.162Z,95231.66
2023-03-06T05:35:25.482Z,95227.25
2023-03-06T05:37:53.900Z,95236.75
2023-03-06T05:40:22.634Z,95222.50
2023-03-06T05:42:50.985Z,95220.09
2023-03-06T05:45:19.764Z,95225.19
2023-03-06T05:47:48.150Z,95234.94
2023-03-06T05:50:18.128Z,95232.03
2023-03-06T05:52:46.633Z,95226.25
2023-03-06T05:55:15.610Z,95228.41
2023-03-06T05:57:43.948Z,95226.19
2023-03-06T06:00:14.858Z,95225.72
2023-03-06T06:02:53.395Z,95225.00
2023-03-06T06:05:23.518Z,95222.59
2023-03-06T06:07:51.901Z,95220.97
2023-03-06T06:10:20.537Z,95224.47
2023-03-06T06:12:48.848Z,95225.06
2023-03-06T06:15:17.572Z,95221.78
2023-03-06T06:17:45.978Z,95226.13
2023-03-06T06:20:17.272Z,95225.50
2023-03-06T06:22:47.053Z,95220.97
2023-03-06T06:25:15.456Z,95217.88
2023-03-06T06:27:44.473Z,95224.78
2023-03-06T06:30:13.870Z,95224.47
2023-03-06T06:32:42.232Z,95222.22
2023-03-06T06:35:11.042Z,95212.31
2023-03-06T06:37:39.382Z,95221.19
2023-03-06T06:40:10.762Z,95222.00
2023-03-06T06:42:41.149Z,95225.22
2023-03-06T06:45:11.362Z,95223.41
2023-03-06T06:47:41.695Z,95223.41
2023-03-06T06:50:15.216Z,95225.22
2023-03-06T06:52:43.567Z,95223.72
2023-03-06T06:55:13.931Z,95231.94
2023-03-06T06:57:43.261Z,95221.75
2023-03-06T07:00:14.801Z,95225.88
2023-03-06T07:02:43.162Z,95230.13
2023-03-06T07:05:11.917Z,95228.34
2023-03-06T07:07:40.256Z,95230.94
2023-03-06T07:10:13.374Z,95229.69
2023-03-06T07:12:43.368Z,95229.38
2023-03-06T07:15:14.427Z,95229.22
2023-03-06T07:17:42.999Z,95232.50
2023-03-06T07:20:12.931Z,95239.84
2023-03-06T07:22:50.937Z,95238.50
2023-03-06T07:25:20.888Z,95239.31
2023-03-06T07:27:54.037Z,95240.16
2023-03-06T07:30:26.454Z,95239.38
2023-03-06T07:32:56.187Z,95235.06
2023-03-06T07:35:25.953Z,95243.94
2023-03-06T07:37:54.836Z,95241.41
2023-03-06T07:40:24.018Z,95252.63
2023-03-06T07:43:09.166Z,95248.41
2023-03-06T07:45:46.915Z,95246.84
2023-03-06T07:48:15.384Z,95246.41
2023-03-06T07:50:43.742Z,95253.50
2023-03-06T07:53:12.344Z,95245.03
2023-03-06T07:55:42.405Z,95254.88
2023-03-06T07:58:12.096Z,95250.16
2023-03-06T08:00:40.477Z,95250.97
2023-03-06T08:03:10.985Z,95251.03
2023-03-06T08:05:39.705Z,95261.84
2023-03-06T08:08:09.423Z,95261.84
2023-03-06T08:10:37.967Z,95264.47
2023-03-06T08:13:06.409Z,95265.97
2023-03-06T08:15:36.229Z,95260.09
2023-03-06T08:18:10.422Z,95256.72
2023-03-06T08:20:38.856Z,95263.97
2023-03-06T08:23:07.284Z,95256.31
2023-03-06T08:25:35.692Z,95261.91
2023-03-06T08:28:04.426Z,95263.38
2023-03-06T08:30:32.791Z,95258.50
2023-03-06T08:33:02.554Z,95258.69
2023-03-06T08:35:31.022Z,95258.06
2023-03-06T08:37:59.389Z,95253.19
2023-03-06T08:40:30.533Z,95259.75
2023-03-06T08:42:59.180Z,95255.69
2023-03-06T08:45:27.698Z,95257.00
2023-03-06T08:47:56.303Z,95258.31
2023-03-06T08:50:26.062Z,95257.19
2023-03-06T08:52:54.440Z,95257.84
2023-03-06T08:55:22.838Z,95264.44
2023-03-06T08:57:51.232Z,95260.16
2023-03-06T09:00:20.498Z,95261.47
2023-03-06T09:02:49.730Z,95265.41
2023-03-06T09:05:18.389Z,95264.09
2023-03-06T09:07:48.268Z,95261.03
2023-03-06T09:10:20.752Z,95263.00
2023-03-06T09:12:51.999Z,95259.06
2023-03-06T09:15:24.232Z,95254.34
2023-03-06T09:17:54.205Z,95263.38
2023-03-06T09:20:23.745Z,95262.88
2023-03-06T09:22:53.806Z,95265.84
2023-03-06T09:25:23.307Z,95261.41
2023-03-06T09:28:08.716Z,95262.41
2023-03-06T09:30:41.571Z,95259.47
2023-03-06T09:33:09.980Z,95260.78
2023-03-06T09:35:43.827Z,95254.88
2023-03-06T09:38:13.972Z,95254.38
2023-03-06T09:40:55.083Z,95261.41
2023-03-06T09:43:29.518Z,95258.78
2023-03-06T09:45:58.340Z,95264.22
2023-03-06T09:48:34.178Z,95261.06
2023-03-06T09:51:05.607Z,95258.28
2023-03-06T09:53:48.843Z,95259.94
2023-03-06T09:56:20.469Z,95264.34
2023-03-06T09:58:52.927Z,95267.19
2023-03-06T10:01:25.715Z,95262.56
2023-03-06T10:03:58.808Z,95258.47
2023-03-06T10:06:31.986Z,95255.84
2023-03-06T10:09:12.897Z,95261.75
2023-03-06T10:11:49.633Z,95255.31
2023-03-06T10:14:28.431Z,95255.84
2023-03-06T10:16:58.525Z,95268.31
2023-03-06T10:19:34.246Z,95261.41
2023-03-06T10:22:07.240Z,95255.03
2023-03-06T10:24:51.278Z,95262.72
2023-03-06T10:27:34.383Z,95253.69
2023-03-06T10:30:19.137Z,95259.13
2023-03-06T10:32:55.788Z,95257.47
2023-03-06T10:35:30.814Z,95252.56
2023-03-06T10:38:12.513Z,95254.25
2023-03-06T10:41:04.955Z,95247.66
2023-03-06T10:43:36.700Z,95251.59
2023-03-06T10:46:07.297Z,95244.88
2023-03-06T10:48:38.501Z,95251.78
2023-03-06T10:51:18.918Z,95242.75
2023-03-06T10:53:53.774Z,95247.00
2023-03-06T10:56:31.986Z,95248.50
2023-03-06T10:59:13.073Z,95242.09
2023-03-06T11:01:45.103Z,95233.25
2023-03-06T11:04:28.959Z,95234.03
2023-03-06T11:07:14.319Z,95230.28
2023-03-06T11:09:44.191Z,95228.50
2023-03-06T11:12:30.267Z,95230.28
2023-03-06T11:15:21.061Z,95235.53
2023-03-06T11:17:56.265Z,95228.50
2023-03-06T11:20:27.032Z,95226.19
2023-03-06T11:22:59.606Z,95226.69
2023-03-06T11:25:34.772Z,95227.66
2023-03-06T11:28:09.455Z,95225.19
2023-03-06T11:30:44.730Z,95225.38
2023-03-06T11:33:21.023Z,95217.81
2023-03-06T11:35:58.967Z,95216.84
2023-03-06T11:38:39.942Z,95212.94
2023-03-06T11:41:19.880Z,95213.72
2023-03-06T11:44:00.676Z,95212.56
2023-03-06T11:46:36.179Z,95210.28
2023-03-06T11:49:14.804Z,95209.28
2023-03-06T11:51:49.339Z,95205.19
2023-03-06T11:54:17.670Z,95201.75
2023-03-06T11:56:55.164Z,95198.63
2023-03-06T11:59:43.368Z,95204.38
2023-03-06T12:02:30.371Z,95204.69
2023-03-06T12:05:13.286Z,95203.03
2023-03-06T12:07:51.261Z,95200.75
2023-03-06T12:10:24.466Z,95202.72
2023-03-06T12:13:17.576Z,95195.38
2023-03-06T12:16:14.765Z,95194.06
2023-03-06T12:18:59.466Z,95193.22
2023-03-06T12:21:41.630Z,95201.09
2023-03-06T12:24:41.866Z,95204.56
2023-03-06T12:27:22.288Z,95198.66
2023-03-06T12:30:05.189Z,95200.94
2023-03-06T12:32:48.995Z,95208.31
2023-03-06T12:35:40.295Z,95197.19
2023-03-06T12:38:44.908Z,95202.41
2023-03-06T12:41:25.499Z,95199.00
2023-03-06T12:44:19.270Z,95200.13
2023-03-06T12:46:51.284Z,95198.16
2023-03-06T12:49:32.558Z,95200.44
2023-03-06T12:52:03.656Z,95194.88
2023-03-06T12:54:37.681Z,95203.06
2023-03-06T12:57:08.610Z,95199.97
2023-03-06T12:59:39.790Z,95197.34
2023-03-06T13:02:50.619Z,95192.75
2023-03-06T13:05:58.821Z,95201.63
2023-03-06T13:08:52.848Z,95201.94
2023-03-06T13:11:31.560Z,95192.59
2023-03-06T13:13:59.992Z,95203.09
2023-03-06T13:16:31.816Z,95196.19
2023-03-06T13:19:05.229Z,95206.69
2023-03-06T13:22:02.378Z,95198.50
2023-03-06T13:24:33.918Z,95198.50
2023-03-06T13:27:05.863Z,95195.06
2023-03-06T13:29:53.453Z,95196.19
2023-03-06T13:32:31.853Z,95192.59
2023-03-06T13:35:00.321Z,95193.91
2023-03-06T13:37:49.860Z,95194.22
2023-03-06T13:40:32.640Z,95195.84
2023-03-06T13:43:25.084Z,95189.97
2023-03-06T13:46:24.803Z,95193.22
2023-03-06T13:49:06.937Z,95190.78
2023-03-06T13:51:37.344Z,95185.84
2023-03-06T13:54:29.173Z,95186.38
2023-03-06T13:57:36.132Z,95188.16
2023-03-06T14:00:36.365Z,95186.34
2023-03-06T14:03:36.122Z,95181.25
2023-03-06T14:06:50.637Z,95179.44
2023-03-06T14:09:33.502Z,95190.75
2023-03-06T14:12:07.754Z,95183.84
2023-03-06T14:14:41.243Z,95179.94
2023-03-06T14:17:21.564Z,95173.69
2023-03-06T14:19:50.678Z,95179.75
2023-03-06T14:22:23.465Z,95182.75
2023-03-06T14:25:01.901Z,95179.94
2023-03-06T14:27:58.200Z,95177.16
2023-03-06T14:30:28.841Z,95175.84
2023-03-06T14:32:57.403Z,95171.09
2023-03-06T14:35:29.605Z,95173.72
2023-03-06T14:38:01.675Z,95168.63
2023-03-06T14:40:35.053Z,95176.50
2023-03-06T14:43:21.622Z,95166.97
2023-03-06T14:45:51.541Z,95162.22
2023-03-06T14:48:20.398Z,95160.72
2023-03-06T14:50:51.788Z,95158.28
2023-03-06T14:53:24.033Z,95158.09
2023-03-06T14:55:56.122Z,95155.78
2023-03-06T14:58:30.978Z,95154.31
2023-03-06T15:01:04.572Z,95156.78
2023-03-06T15:03:42.973Z,95153.81
2023-03-06T15:06:16.836Z,95145.94
2023-03-06T15:08:48.548Z,95155.47
2023-03-06T15:11:18.417Z,95152.16
2023-03-06T15:14:01.851Z,95145.47
2023-03-06T15:16:32.392Z,95151.06
2023-03-06T15:19:02.499Z,95148.75
2023-03-06T15:21:36.531Z,95139.75
2023-03-06T15:24:31.659Z,95146.31
2023-03-06T15:27:04.177Z,95150.44
2023-03-06T15:29:32.905Z,95158.63
2023-03-06T15:32:15.451Z,95155.69
2023-03-06T15:34:43.932Z,95152.44
2023-03-06T15:37:28.080Z,95154.22
2023-03-06T15:40:09.183Z,95154.56
2023-03-06T15:42:39.121Z,95156.38
2023-03-06T15:45:16.882Z,95156.19
2023-03-06T15:47:45.880Z,95158.66
2023-03-06T15:50:17.202Z,95153.88
2023-03-06T15:52:46.008Z,95166.50
2023-03-06T15:55:15.168Z,95171.41
2023-03-06T15:57:52.413Z,95167.34
2023-03-06T16:00:28.329Z,95165.84
2023-03-06T16:02:57.294Z,95171.94
2023-03-06T16:05:27.105Z,95171.28
2023-03-06T16:07:56.365Z,95165.19
2023-03-06T16:10:27.008Z,95173.91
2023-03-06T16:13:00.768Z,95173.06
2023-03-06T16:15:29.947Z,95175.03
2023-03-06T16:17:58.794Z,95181.78
2023-03-06T16:20:28.674Z,95171.28
2023-03-06T16:22:57.312Z,95184.19
2023-03-06T16:25:28.613Z,95179.81
2023-03-06T16:27:59.593Z,95186.03
2023-03-06T16:30:30.792Z,95186.81
2023-03-06T16:33:04.041Z,95188.00
2023-03-06T16:35:32.463Z,95190.63
2023-03-06T16:38:00.974Z,95191.44
2023-03-06T16:40:32.475Z,95189.97
2023-03-06T16:43:02.138Z,95185.88
2023-03-06T16:45:30.599Z,95192.09
2023-03-06T16:48:07.125Z,95195.22
2023-03-06T16:50:38.681Z,95186.69
2023-03-06T16:53:08.086Z,95192.09
2023-03-06T16:55:36.517Z,95195.88
2023-03-06T16:58:13.790Z,95194.22
2023-03-06T17:00:42.465Z,95190.94
2023-03-06T17:03:10.832Z,95194.56
2023-03-06T17:05:39.545Z,95198.31
2023-03-06T17:08:07.882Z,95199.31
2023-03-06T17:10:36.411Z,95196.19
2023-03-06T17:13:05.175Z,95201.28
2023-03-06T17:15:35.000Z,95198.81
2023-03-06T17:18:03.391Z,95202.75
2023-03-06T17:20:31.751Z,95197.16
2023-03-06T17:23:00.099Z,95200.94
2023-03-06T17:25:28.425Z,95206.34
2023-03-06T17:27:56.785Z,95210.28
2023-03-06T17:30:25.121Z,95211.59
2023-03-06T17:32:54.792Z,95217.13
2023-03-06T17:35:23.291Z,95221.41
2023-03-06T17:37:52.455Z,95206.66
2023-03-06T17:40:21.019Z,95214.53
2023-03-06T17:42:50.651Z,95219.09
2023-03-06T17:45:19.026Z,95221.22
2023-03-06T17:47:49.053Z,95221.06
2023-03-06T17:50:19.176Z,95227.47
2023-03-06T17:52:47.532Z,95228.91
2023-03-06T17:55:15.883Z,95225.66
2023-03-06T17:57:44.216Z,95224.66
2023-03-06T18:00:13.373Z,95220.41
2023-03-06T18:02:45.412Z,95227.28
2023-03-06T18:05:13.866Z,95224.81
2023-03-06T18:07:43.905Z,95222.03
2023-03-06T18:10:12.538Z,95224.66
2023-03-06T18:12:41.036Z,95219.91
2023-03-06T18:15:10.383Z,95217.78
2023-03-06T18:17:38.876Z,95226.16
2023-03-06T18:20:08.027Z,95222.38
2023-03-06T18:22:36.402Z,95224.03
2023-03-06T18:25:07.015Z,95219.75
2023-03-06T18:27:36.023Z,95226.66
2023-03-06T18:30:04.892Z,95226.47
2023-03-06T18:32:33.519Z,95230.75
2023-03-06T18:35:01.935Z,95238.78
2023-03-06T18:37:30.298Z,95243.19
2023-03-06T18:39:58.655Z,95240.88
2023-03-06T18:42:28.476Z,95236.28
2023-03-06T18:45:03.807Z,95250.69
2023-03-06T18:47:32.220Z,95251.84
2023-03-06T18:50:02.503Z,95246.91
2023-03-06T18:52:30.891Z,95248.88
2023-03-06T18:54:59.201Z,95252.97
2023-03-06T18:57:30.422Z,95254.78
2023-03-06T18:59:59.239Z,95265.91
2023-03-06T19:02:27.649Z,95255.78
2023-03-06T19:04:56.202Z,95268.88
2023-03-06T19:07:25.286Z,95262.28
2023-03-06T19:09:53.714Z,95268.38
2023-03-06T19:12:22.149Z,95269.84
2023-03-06T19:14:51.929Z,95265.25
2023-03-06T19:17:20.425Z,95265.25
2023-03-06T19:19:50.708Z,95269.03
2023-03-06T19:22:19.177Z,95272.47
2023-03-06T19:24:50.011Z,95279.66
2023-03-06T19:27:28.258Z,95275.06
2023-03-06T19:29:57.967Z,95267.50
2023-03-06T19:32:26.340Z,95271.41
2023-03-06T19:34:58.603Z,95262.09
2023-03-06T19:37:26.997Z,95268.28
2023-03-06T19:39:56.872Z,95260.44
2023-03-06T19:42:25.290Z,95269.78
2023-03-06T19:44:53.610Z,95268.13
2023-03-06T19:47:23.496Z,95266.03
2023-03-06T19:49:52.034Z,95265.22
2023-03-06T19:52:20.392Z,95269.31
2023-03-06T19:54:48.721Z,95267.50
2023-03-06T19:57:17.295Z,95269.81
2023-03-06T19:59:45.649Z,95266.19
2023-03-06T20:02:16.090Z,95261.63
2023-03-06T20:04:46.671Z,95259.84
2023-03-06T20:07:15.017Z,95265.25
2023-03-06T20:09:43.357Z,95262.91
2023-03-06T20:12:11.657Z,95268.16
2023-03-06T20:14:40.008Z,95278.78
2023-03-06T20:17:08.809Z,95270.13
2023-03-06T20:19:37.800Z,95267.19
2023-03-06T20:22:07.582Z,95275.72
2023-03-06T20:24:35.905Z,95271.28
2023-03-06T20:27:04.524Z,95274.91
2023-03-06T20:29:32.875Z,95266.19
2023-03-06T20:32:01.397Z,95272.28
2023-03-06T20:34:29.918Z,95268.81
2023-03-06T20:36:58.281Z,95272.09
2023-03-06T20:39:28.094Z,95270.31
2023-03-06T20:41:56.507Z,95271.44
2023-03-06T20:44:24.798Z,95273.25
2023-03-06T20:46:53.741Z,95268.16
2023-03-06T20:49:22.612Z,95265.88
2023-03-06T20:51:51.047Z,95271.41
2023-03-06T20:54:19.441Z,95264.84
2023-03-06T20:56:50.758Z,95266.00
2023-03-06T20:59:19.330Z,95271.25
2023-03-06T21:01:48.221Z,95267.97
2023-03-06T21:04:17.359Z,95269.91
2023-03-06T21:06:46.973Z,95269.41
2023-03-06T21:09:17.575Z,95264.63
2023-03-06T21:11:46.448Z,95273.25
2023-03-06T21:14:16.295Z,95260.50
2023-03-06T21:16:45.563Z,95268.34
2023-03-06T21:19:14.060Z,95262.97
2023-03-06T21:21:42.732Z,95266.06
2023-03-06T21:24:11.187Z,95266.41
2023-03-06T21:26:39.544Z,95261.31
2023-03-06T21:29:07.844Z,95258.03
2023-03-06T21:31:37.590Z,95259.00
2023-03-06T21:34:06.328Z,95264.09
2023-03-06T21:36:35.146Z,95257.41
2023-03-06T21:39:06.507Z,95253.50
2023-03-06T21:41:35.574Z,95253.19
2023-03-06T21:44:05.675Z,95250.41
2023-03-06T21:46:35.280Z,95253.03
2023-03-06T21:49:05.699Z,95243.38
2023-03-06T21:51:34.788Z,95245.19
2023-03-06T21:54:04.046Z,95245.19
2023-03-06T21:56:33.530Z,95242.56
2023-03-06T21:59:02.064Z,95246.00
2023-03-06T22:01:31.083Z,95243.22
2023-03-06T22:03:59.962Z,95247.47
2023-03-06T22:06:34.992Z,95239.47
2023-03-06T22:09:04.995Z,95236.84
2023-03-06T22:11:37.059Z,95243.88
2023-03-06T22:14:06.243Z,95234.38
2023-03-06T22:16:34.734Z,95232.91
2023-03-06T22:19:03.218Z,95229.28
2023-03-06T22:21:32.952Z,95228.00
2023-03-06T22:24:02.213Z,95223.25
2023-03-06T22:26:31.601Z,95229.34
2023-03-06T22:29:00.506Z,95224.91
2023-03-06T22:31:29.733Z,95213.78
2023-03-06T22:34:00.119Z,95213.63
2023-03-06T22:36:30.227Z,95214.59
2023-03-06T22:39:02.256Z,95211.31
2023-03-06T22:41:31.550Z,95213.13
2023-03-06T22:44:01.523Z,95210.13
2023-03-06T22:46:30.840Z,95199.00
2023-03-06T22:48:59.909Z,95207.34
2023-03-06T22:51:29.826Z,95205.84
2023-03-06T22:54:00.105Z,95195.56
2023-03-06T22:56:28.581Z,95194.72
2023-03-06T22:58:58.024Z,95188.81
2023-03-06T23:01:28.982Z,95192.44
2023-03-06T23:04:00.285Z,95181.94
2023-03-06T23:06:31.804Z,95187.19
2023-03-06T23:09:03.980Z,95191.75
2023-03-06T23:11:32.927Z,95189.59
2023-03-06T23:14:12.120Z,95183.72
2023-03-06T23:16:40.851Z,95187.97
2023-03-06T23:19:09.278Z,95177.66
2023-03-06T23:21:37.909Z,95174.09
2023-03-06T23:24:08.475Z,95165.88
2023-03-06T23:26:37.108Z,95172.28
2023-03-06T23:29:05.492Z,95172.41
2023-03-06T23:31:33.983Z,95168.00
2023-03-06T23:34:03.872Z,95164.56
2023-03-06T23:36:32.178Z,95172.56
2023-03-06T23:39:00.676Z,95172.56
2023-03-06T23:41:30.530Z,95169.16
2023-03-06T23:43:59.656Z,95171.09
2023-03-06T23:46:28.131Z,95169.31
2023-03-06T23:48:56.467Z,95166.69
2023-03-06T23:51:25.113Z,95178.97
2023-03-06T23:53:58.333Z,95162.59
2023-03-06T23:56:28.358Z,95165.22
2023-03-06T23:58:58.183Z,95163.72
